Time;durP1;ratioP1;P1;durP2;ratioP2;P2;SDS_P1;SDS_P2;PMS_P1;PMS_P2;Temp;Humidity;BMP_temperature;BMP_pressure;BME280_temperature;BME280_humidity;BME280_pressure;Samples;Min_cycle;Max_cycle;Signal;HPM_P1;HPM_P2
2021/08/01 00:01:35;;;;;;;4.97;3.63;;;16.60;91.40;;;;;;4973668;28;20494;-75
2021/08/01 00:04:02;;;;;;;5.38;3.60;;;16.70;91.70;;;;;;4973045;28;20054;-74
2021/08/01 00:06:28;;;;;;;7.80;3.88;;;16.60;91.80;;;;;;4972160;28;20031;-75
2021/08/01 00:08:54;;;;;;;6.05;3.70;;;16.60;92.20;;;;;;4973157;28;20038;-75
2021/08/01 00:11:21;;;;;;;6.53;3.35;;;16.70;92.20;;;;;;4973026;28;20043;-75
2021/08/01 00:13:47;;;;;;;4.88;3.60;;;16.60;92.60;;;;;;4971974;28;20035;-74
2021/08/01 00:16:13;;;;;;;5.10;3.80;;;16.60;92.40;;;;;;4972980;28;20031;-75
2021/08/01 00:18:39;;;;;;;7.00;4.40;;;16.60;92.90;;;;;;4972804;28;20041;-74
2021/08/01 00:21:06;;;;;;;5.93;3.72;;;16.70;92.80;;;;;;4973628;28;20049;-74
2021/08/01 00:23:32;;;;;;;4.45;3.58;;;16.70;92.90;;;;;;4971646;28;20027;-75
2021/08/01 00:25:58;;;;;;;8.18;3.75;;;16.60;92.90;;;;;;4972770;28;20113;-75
2021/08/01 00:28:25;;;;;;;4.95;3.42;;;16.60;92.70;;;;;;4972638;28;20067;-75
2021/08/01 00:30:51;;;;;;;5.47;3.60;;;16.60;93.20;;;;;;4973573;28;20057;-75
2021/08/01 00:33:17;;;;;;;6.45;4.20;;;16.60;93.30;;;;;;4972455;28;20061;-75
2021/08/01 00:35:45;;;;;;;5.22;3.58;;;16.60;93.20;;;;;;4971376;28;20049;-75
2021/08/01 00:38:11;;;;;;;5.03;3.95;;;16.50;93.40;;;;;;4971070;28;20729;-75
2021/08/01 00:40:38;;;;;;;7.07;4.45;;;16.40;93.60;;;;;;4972767;28;20038;-75
2021/08/01 00:43:04;;;;;;;8.57;3.67;;;16.50;94.10;;;;;;4972145;28;20443;-74
2021/08/01 00:45:30;;;;;;;11.07;5.30;;;16.40;94.00;;;;;;4954831;28;20039;-75
2021/08/01 00:47:57;;;;;;;6.22;3.72;;;16.20;94.50;;;;;;4987589;28;20042;-76
2021/08/01 00:50:24;;;;;;;7.93;3.78;;;16.10;95.00;;;;;;4972473;28;20086;-75
2021/08/01 00:52:52;;;;;;;5.07;3.97;;;16.00;95.20;;;;;;4972578;28;20054;-76
2021/08/01 00:55:19;;;;;;;6.13;3.35;;;16.00;95.60;;;;;;4974191;28;20045;-75
2021/08/01 00:57:46;;;;;;;4.25;3.67;;;16.00;96.00;;;;;;4971172;28;20039;-75
2021/08/01 01:00:22;;;;;;;6.72;3.50;;;16.10;95.80;;;;;;4972133;28;20054;-75
2021/08/01 01:02:49;;;;;;;6.93;4.20;;;16.10;95.70;;;;;;4972980;28;20520;-75
2021/08/01 01:05:27;;;;;;;6.13;4.47;;;16.10;96.30;;;;;;4970982;28;20065;-75
2021/08/01 01:08:25;;;;;;;5.93;3.97;;;16.00;96.60;;;;;;4963096;28;20440;-75
2021/08/01 01:11:13;;;;;;;6.30;3.63;;;16.10;96.50;;;;;;4969236;28;20481;-75
2021/08/01 01:13:54;;;;;;;8.18;4.15;;;16.10;96.40;;;;;;4972384;28;20049;-75
2021/08/01 01:16:22;;;;;;;10.90;4.60;;;15.90;96.40;;;;;;4971580;28;20042;-74
2021/08/01 01:18:51;;;;;;;7.85;4.93;;;15.80;96.70;;;;;;4972791;28;20369;-75
2021/08/01 01:21:37;;;;;;;5.75;4.15;;;15.80;97.00;;;;;;4972674;28;20047;-75
2021/08/01 01:24:06;;;;;;;6.15;4.10;;;15.70;97.50;;;;;;4972842;28;20038;-74
2021/08/01 01:26:42;;;;;;;4.93;3.88;;;15.70;97.20;;;;;;4969871;28;20047;-75
2021/08/01 01:29:20;;;;;;;6.53;4.15;;;15.70;96.60;;;;;;4971857;28;20398;-75
2021/08/01 01:31:47;;;;;;;4.95;3.67;;;15.70;96.30;;;;;;4972197;28;20034;-75
2021/08/01 01:34:18;;;;;;;3.88;3.10;;;15.80;96.00;;;;;;4970305;28;20093;-74
2021/08/01 01:36:46;;;;;;;6.50;4.00;;;15.90;96.00;;;;;;4959878;28;20055;-75
2021/08/01 01:39:16;;;;;;;5.10;4.38;;;16.00;96.30;;;;;;4952416;28;20047;-74
2021/08/01 01:42:09;;;;;;;4.40;3.75;;;16.10;96.30;;;;;;4970857;28;20053;-74
2021/08/01 01:44:45;;;;;;;4.75;3.67;;;16.10;96.50;;;;;;4956112;28;20039;-75
2021/08/01 01:47:17;;;;;;;5.47;4.00;;;16.10;97.00;;;;;;4956416;28;20481;-74
2021/08/01 01:49:44;;;;;;;5.50;4.00;;;16.10;96.80;;;;;;4972309;28;20069;-75
2021/08/01 01:52:15;;;;;;;6.82;4.18;;;16.00;96.70;;;;;;4971464;28;20050;-74
2021/08/01 01:54:47;;;;;;;6.05;4.10;;;16.00;97.00;;;;;;4955290;28;20054;-74
2021/08/01 01:57:16;;;;;;;5.53;3.65;;;15.90;97.40;;;;;;4955977;28;20367;-74
2021/08/01 01:59:43;;;;;;;8.30;4.53;;;16.00;97.60;;;;;;4969392;28;20066;-74
2021/08/01 02:02:12;;;;;;;8.45;5.03;;;16.10;97.70;;;;;;4967671;28;20050;-75
2021/08/01 02:04:39;;;;;;;6.95;4.25;;;16.00;97.70;;;;;;4968570;28;20400;-75
2021/08/01 02:07:43;;;;;;;8.20;4.32;;;16.00;97.60;;;;;;4963297;28;20039;-75
2021/08/01 02:10:45;;;;;;;6.57;4.47;;;16.00;98.10;;;;;;4970547;28;20043;-75
2021/08/01 02:13:16;;;;;;;7.43;4.32;;;16.00;98.20;;;;;;4970103;28;20041;-75
2021/08/01 02:15:54;;;;;;;7.70;4.00;;;16.00;98.30;;;;;;4969482;28;20051;-75
2021/08/01 02:18:52;;;;;;;6.75;3.88;;;16.10;98.10;;;;;;4965023;28;20050;-75
2021/08/01 02:21:21;;;;;;;8.68;4.30;;;16.00;98.20;;;;;;4955310;28;20043;-75
2021/08/01 02:23:50;;;;;;;6.75;4.35;;;15.90;98.50;;;;;;4972718;28;20396;-75
2021/08/01 02:26:21;;;;;;;7.47;4.20;;;15.90;98.70;;;;;;4957506;28;20036;-75
2021/08/01 02:28:51;;;;;;;4.80;3.92;;;15.90;98.90;;;;;;4975181;28;20046;-75
2021/08/01 02:31:19;;;;;;;6.00;4.30;;;15.90;99.10;;;;;;4974644;28;20037;-75
2021/08/01 02:33:48;;;;;;;5.97;4.13;;;15.90;99.20;;;;;;4974541;28;20051;-75
2021/08/01 02:36:18;;;;;;;8.13;4.13;;;15.80;99.30;;;;;;4973935;28;20043;-75
2021/08/01 02:38:52;;;;;;;6.40;4.18;;;15.80;99.50;;;;;;4975739;28;20042;-75
2021/08/01 02:41:22;;;;;;;6.53;3.92;;;15.70;99.80;;;;;;4974045;28;20043;-74
2021/08/01 02:43:50;;;;;;;8.13;4.57;;;15.70;99.90;;;;;;4961386;28;20043;-76
2021/08/01 02:46:25;;;;;;;8.45;4.90;;;15.70;99.90;;;;;;4965785;28;20400;-75
2021/08/01 02:48:55;;;;;;;8.13;4.25;;;15.70;99.90;;;;;;4974344;28;20050;-75
2021/08/01 02:51:26;;;;;;;8.38;5.10;;;15.70;99.90;;;;;;4970644;28;20056;-75
2021/08/01 02:53:55;;;;;;;6.47;4.70;;;15.70;99.90;;;;;;4976719;28;20049;-75
2021/08/01 02:56:24;;;;;;;8.93;4.97;;;15.70;99.90;;;;;;4974328;28;20035;-75
2021/08/01 02:58:54;;;;;;;7.45;4.40;;;15.60;99.90;;;;;;4974109;28;20046;-75
2021/08/01 03:01:21;;;;;;;5.50;4.00;;;15.60;99.90;;;;;;4975375;28;20062;-75
2021/08/01 03:03:48;;;;;;;9.10;4.47;;;15.60;99.90;;;;;;4974260;28;20362;-74
2021/08/01 03:06:15;;;;;;;5.28;4.30;;;15.70;99.90;;;;;;4975128;28;20050;-74
2021/08/01 03:08:42;;;;;;;5.07;4.32;;;15.60;99.90;;;;;;4974335;28;20047;-75
2021/08/01 03:11:09;;;;;;;6.70;3.90;;;15.50;99.90;;;;;;4973016;28;20035;-74
2021/08/01 03:13:35;;;;;;;7.25;4.30;;;15.60;99.90;;;;;;4974553;28;20035;-75
2021/08/01 03:16:02;;;;;;;7.20;4.05;;;15.50;99.90;;;;;;4974473;28;20050;-75
2021/08/01 03:18:28;;;;;;;4.75;4.07;;;15.60;99.90;;;;;;4973799;28;20050;-75
2021/08/01 03:20:56;;;;;;;6.10;4.30;;;15.60;99.90;;;;;;4974173;28;20050;-75
2021/08/01 03:23:22;;;;;;;6.63;4.55;;;15.60;99.90;;;;;;4973954;28;20221;-75
2021/08/01 03:26:15;;;;;;;6.60;4.28;;;15.70;99.90;;;;;;4956896;28;20039;-75
2021/08/01 03:28:44;;;;;;;5.57;3.97;;;15.80;99.90;;;;;;4971451;28;20047;-75
2021/08/01 03:31:11;;;;;;;5.72;3.92;;;15.70;99.90;;;;;;4969576;28;20508;-75
2021/08/01 03:33:43;;;;;;;11.23;4.22;;;15.70;99.90;;;;;;4970703;28;20055;-76
2021/08/01 03:36:10;;;;;;;8.45;5.28;;;15.60;99.90;;;;;;4954518;28;20039;-75
2021/08/01 03:38:56;;;;;;;6.63;4.35;;;15.50;99.90;;;;;;4982237;28;20416;-75
2021/08/01 03:41:35;;;;;;;5.88;4.20;;;15.60;99.90;;;;;;4973992;28;20057;-75
2021/08/01 03:44:02;;;;;;;6.38;4.22;;;15.50;99.90;;;;;;4974833;28;20043;-75
2021/08/01 03:46:29;;;;;;;11.65;4.85;;;15.50;99.90;;;;;;4974811;28;20035;-75
2021/08/01 03:48:55;;;;;;;5.90;4.53;;;15.50;99.90;;;;;;4972499;28;20031;-75
2021/08/01 03:51:21;;;;;;;6.03;4.57;;;15.40;99.90;;;;;;4973401;28;20039;-75
2021/08/01 03:53:47;;;;;;;8.85;4.82;;;15.40;99.90;;;;;;4973788;28;20034;-74
2021/08/01 03:56:13;;;;;;;6.47;4.68;;;15.40;99.90;;;;;;4974691;28;20046;-74
2021/08/01 03:58:40;;;;;;;6.38;4.28;;;15.40;99.90;;;;;;4972080;28;20058;-75
2021/08/01 04:01:06;;;;;;;7.03;4.65;;;15.40;99.90;;;;;;4973059;28;20062;-74
2021/08/01 04:03:33;;;;;;;10.02;5.15;;;15.40;99.90;;;;;;4954375;28;20047;-75
2021/08/01 04:05:59;;;;;;;7.20;4.22;;;15.40;99.90;;;;;;4961545;28;20047;-75
2021/08/01 04:08:25;;;;;;;7.05;4.75;;;15.40;99.90;;;;;;4973516;28;20077;-75
2021/08/01 04:10:52;;;;;;;5.32;3.78;;;15.30;99.90;;;;;;4973390;28;20035;-75
2021/08/01 04:13:18;;;;;;;8.18;4.32;;;15.30;99.90;;;;;;4973297;28;20050;-75
2021/08/01 04:15:47;;;;;;;7.68;4.78;;;15.30;99.90;;;;;;4972620;28;20047;-74
2021/08/01 04:18:14;;;;;;;7.43;4.57;;;15.40;99.90;;;;;;4972928;28;20031;-74
2021/08/01 04:20:40;;;;;;;9.23;4.72;;;15.30;99.90;;;;;;4972969;28;20034;-74
2021/08/01 04:23:06;;;;;;;5.97;3.75;;;15.40;99.90;;;;;;4972759;28;20039;-74
2021/08/01 04:25:32;;;;;;;5.05;4.07;;;15.50;99.90;;;;;;4973051;28;20039;-75
2021/08/01 04:27:58;;;;;;;6.68;4.70;;;15.50;99.90;;;;;;4983929;28;20046;-74
2021/08/01 04:30:25;;;;;;;5.30;3.72;;;15.40;99.90;;;;;;4954726;28;20035;-75
2021/08/01 04:32:51;;;;;;;4.57;4.00;;;15.30;99.90;;;;;;4953744;28;20046;-75
2021/08/01 04:35:17;;;;;;;8.60;3.58;;;15.30;99.90;;;;;;4961791;28;20358;-74
2021/08/01 04:37:43;;;;;;;5.63;3.60;;;15.30;99.90;;;;;;4971611;28;20357;-75
2021/08/01 04:40:10;;;;;;;9.00;4.00;;;15.40;99.90;;;;;;4972295;28;20042;-74
2021/08/01 04:42:36;;;;;;;3.92;3.10;;;15.50;99.90;;;;;;4973117;28;20047;-75
2021/08/01 04:45:03;;;;;;;12.82;3.80;;;15.50;99.90;;;;;;4972716;28;20047;-75
2021/08/01 04:47:29;;;;;;;5.57;3.72;;;15.60;99.90;;;;;;4972660;28;20404;-75
2021/08/01 04:49:55;;;;;;;4.60;3.45;;;15.70;99.90;;;;;;4971603;28;20043;-74
2021/08/01 04:52:22;;;;;;;5.63;3.03;;;15.70;99.90;;;;;;4973445;28;20047;-74
2021/08/01 04:54:48;;;;;;;5.72;3.83;;;15.80;99.90;;;;;;4972520;28;20046;-75
2021/08/01 04:57:15;;;;;;;3.70;3.10;;;15.80;99.90;;;;;;4970977;28;20039;-77
2021/08/01 04:59:41;;;;;;;4.80;3.10;;;15.90;99.90;;;;;;4972608;28;20396;-76
2021/08/01 05:02:26;;;;;;;4.53;3.38;;;16.00;99.90;;;;;;4972165;28;20035;-76
2021/08/01 05:04:53;;;;;;;3.92;3.17;;;16.00;99.90;;;;;;4955099;28;20050;-76
2021/08/01 05:07:19;;;;;;;5.35;3.75;;;16.10;99.90;;;;;;4972279;28;20033;-75
2021/08/01 05:09:45;;;;;;;4.68;3.08;;;16.10;99.90;;;;;;4972474;28;20374;-76
2021/08/01 05:12:11;;;;;;;4.88;2.90;;;16.30;99.90;;;;;;4971939;28;20039;-76
2021/08/01 05:14:37;;;;;;;5.70;3.35;;;16.30;99.90;;;;;;4971880;28;20042;-76
2021/08/01 05:17:04;;;;;;;4.30;2.90;;;16.40;99.90;;;;;;4971984;28;20042;-76
2021/08/01 05:19:31;;;;;;;4.28;2.45;;;16.40;99.90;;;;;;4971722;28;20050;-76
2021/08/01 05:21:57;;;;;;;4.22;3.28;;;16.40;99.90;;;;;;4972159;28;20460;-76
2021/08/01 05:24:23;;;;;;;4.65;3.13;;;16.40;99.90;;;;;;4971582;28;20042;-76
2021/08/01 05:26:49;;;;;;;7.25;3.55;;;16.40;99.90;;;;;;4971093;28;20483;-75
2021/08/01 05:29:15;;;;;;;5.88;3.22;;;16.40;99.90;;;;;;4971286;28;20042;-76
2021/08/01 05:31:41;;;;;;;4.38;3.30;;;16.30;99.90;;;;;;4972132;28;20035;-75
2021/08/01 05:34:08;;;;;;;6.00;3.00;;;16.40;99.90;;;;;;4968000;28;20044;-75
2021/08/01 05:36:34;;;;;;;5.85;3.03;;;16.50;99.90;;;;;;4953971;28;20397;-75
2021/08/01 05:39:00;;;;;;;4.13;3.03;;;16.60;99.90;;;;;;4970136;28;20062;-75
2021/08/01 05:41:26;;;;;;;3.47;2.65;;;16.60;99.70;;;;;;4971677;28;20023;-75
2021/08/01 05:43:53;;;;;;;4.82;2.83;;;16.70;99.00;;;;;;4970789;28;20030;-75
2021/08/01 05:46:19;;;;;;;5.15;2.78;;;16.80;98.80;;;;;;4973520;28;20034;-75
2021/08/01 05:48:45;;;;;;;5.22;2.85;;;16.90;98.40;;;;;;4979217;28;20053;-75
2021/08/01 05:51:11;;;;;;;4.30;2.42;;;17.00;97.90;;;;;;4971347;28;20043;-75
2021/08/01 05:53:38;;;;;;;4.60;3.08;;;17.00;97.70;;;;;;4968158;28;20047;-76
2021/08/01 05:56:09;;;;;;;5.90;2.95;;;17.20;97.50;;;;;;4960527;28;20035;-75
2021/08/01 05:58:35;;;;;;;2.88;2.25;;;17.10;96.40;;;;;;4971690;28;20346;-75
2021/08/01 06:01:09;;;;;;;4.15;2.17;;;17.20;97.00;;;;;;4972003;28;20047;-75
2021/08/01 06:03:35;;;;;;;6.68;2.85;;;17.20;96.60;;;;;;4971696;28;20051;-75
2021/08/01 06:06:10;;;;;;;4.50;2.53;;;17.20;96.00;;;;;;4970589;28;20457;-75
2021/08/01 06:08:36;;;;;;;4.43;2.72;;;17.10;95.90;;;;;;4971745;28;20054;-75
2021/08/01 06:11:04;;;;;;;5.25;2.85;;;17.10;95.70;;;;;;4971747;28;20042;-75
2021/08/01 06:13:31;;;;;;;5.53;2.42;;;17.20;96.20;;;;;;4971530;28;20356;-75
2021/08/01 06:15:58;;;;;;;4.85;2.67;;;17.10;95.90;;;;;;4968047;28;20023;-75
2021/08/01 06:18:24;;;;;;;5.57;3.03;;;17.20;95.80;;;;;;4964297;28;20031;-75
2021/08/01 06:21:00;;;;;;;4.93;2.50;;;17.30;96.30;;;;;;4960351;28;20456;-75
2021/08/01 06:23:27;;;;;;;5.15;2.30;;;17.40;95.30;;;;;;4964192;28;20035;-75
2021/08/01 06:25:53;;;;;;;4.45;2.10;;;17.40;94.60;;;;;;4970921;28;20042;-75
2021/08/01 06:28:19;;;;;;;4.43;2.33;;;17.50;94.70;;;;;;4969481;28;20046;-76
2021/08/01 06:30:45;;;;;;;6.80;2.70;;;17.70;94.00;;;;;;4970676;28;20066;-77
2021/08/01 06:33:11;;;;;;;4.63;2.60;;;17.80;93.60;;;;;;4971367;28;20069;-78
2021/08/01 06:35:37;;;;;;;4.22;2.35;;;17.80;93.20;;;;;;4971662;28;20357;-75
2021/08/01 06:38:04;;;;;;;4.18;1.65;;;18.00;93.50;;;;;;4970417;28;20031;-73
2021/08/01 06:40:30;;;;;;;2.90;1.65;;;18.30;92.20;;;;;;4970202;28;20378;-74
2021/08/01 06:42:56;;;;;;;2.63;1.92;;;19.20;90.60;;;;;;4971546;28;20046;-74
2021/08/01 06:45:22;;;;;;;2.63;1.65;;;19.90;88.20;;;;;;4971114;28;20039;-73
2021/08/01 06:47:51;;;;;;;2.22;1.60;;;19.50;87.50;;;;;;4971282;28;20047;-73
2021/08/01 06:50:19;;;;;;;3.35;1.80;;;19.70;86.90;;;;;;4970912;28;20041;-74
2021/08/01 06:52:46;;;;;;;2.88;1.83;;;19.70;85.50;;;;;;4970399;28;20065;-74
2021/08/01 06:55:13;;;;;;;5.20;2.15;;;19.80;85.30;;;;;;4970514;28;20050;-73
2021/08/01 06:57:39;;;;;;;3.63;1.90;;;20.10;84.50;;;;;;4970052;28;20041;-74
2021/08/01 07:00:06;;;;;;;4.13;1.60;;;20.10;82.60;;;;;;4970937;28;20421;-73
2021/08/01 07:02:33;;;;;;;2.08;1.70;;;20.20;82.60;;;;;;4973023;28;20030;-73
2021/08/01 07:04:59;;;;;;;5.97;1.92;;;19.90;83.30;;;;;;4974759;28;20479;-74
2021/08/01 07:07:25;;;;;;;2.42;1.45;;;19.40;84.50;;;;;;4973016;28;20055;-73
2021/08/01 07:09:52;;;;;;;3.00;1.60;;;19.20;85.10;;;;;;4974391;28;20043;-73
2021/08/01 07:12:18;;;;;;;3.40;1.48;;;19.10;85.70;;;;;;4974245;28;20031;-74
2021/08/01 07:14:47;;;;;;;2.47;1.70;;;18.90;86.40;;;;;;4974471;28;20034;-74
2021/08/01 07:17:13;;;;;;;3.00;1.52;;;18.90;87.10;;;;;;4973074;28;20053;-73
2021/08/01 07:19:40;;;;;;;4.63;1.80;;;18.80;87.90;;;;;;4974544;28;20392;-73
2021/08/01 07:22:06;;;;;;;2.70;1.80;;;18.80;87.50;;;;;;4972843;28;20045;-74
2021/08/01 07:24:32;;;;;;;4.95;2.00;;;18.90;87.40;;;;;;4974442;28;20396;-73
2021/08/01 07:26:58;;;;;;;4.20;1.60;;;19.00;86.70;;;;;;4973319;28;20390;-76
2021/08/01 07:29:24;;;;;;;3.78;1.88;;;19.30;86.50;;;;;;4964621;28;20120;-73
2021/08/01 07:31:51;;;;;;;2.92;1.80;;;19.80;85.10;;;;;;4956105;28;20046;-74
2021/08/01 07:34:17;;;;;;;3.88;1.73;;;20.00;84.00;;;;;;4967228;28;20031;-73
2021/08/01 07:36:47;;;;;;;4.95;2.03;;;19.70;84.00;;;;;;4956517;28;20031;-74
2021/08/01 07:39:13;;;;;;;5.30;2.33;;;20.10;85.30;;;;;;4973153;28;20485;-73
2021/08/01 07:41:39;;;;;;;3.63;1.60;;;20.70;82.30;;;;;;4973943;28;20487;-73
2021/08/01 07:44:05;;;;;;;4.78;2.35;;;20.90;80.70;;;;;;4972443;28;20393;-73
2021/08/01 07:46:32;;;;;;;4.07;2.15;;;21.10;79.50;;;;;;4973288;28;20043;-74
2021/08/01 07:48:58;;;;;;;3.00;2.10;;;22.40;77.10;;;;;;4972437;28;20396;-74
2021/08/01 07:51:25;;;;;;;3.92;2.00;;;22.20;73.80;;;;;;4974083;28;20051;-74
2021/08/01 07:53:51;;;;;;;2.83;2.30;;;21.30;75.70;;;;;;4974048;28;20046;-75
2021/08/01 07:56:17;;;;;;;3.47;1.83;;;20.70;79.00;;;;;;4971611;28;20035;-73
2021/08/01 07:58:43;;;;;;;2.92;1.75;;;20.70;78.60;;;;;;4955802;28;20047;-74
2021/08/01 08:01:10;;;;;;;4.00;1.80;;;21.20;77.80;;;;;;4972949;28;20394;-73
2021/08/01 08:03:36;;;;;;;3.83;2.38;;;21.30;76.60;;;;;;4973398;28;20055;-74
2021/08/01 08:06:05;;;;;;;4.10;1.70;;;21.60;76.10;;;;;;4972719;28;20035;-73
2021/08/01 08:08:32;;;;;;;3.03;1.67;;;22.60;74.40;;;;;;4974297;28;20042;-74
2021/08/01 08:10:58;;;;;;;3.70;2.00;;;23.70;69.10;;;;;;4971941;28;20038;-75
2021/08/01 08:13:24;;;;;;;2.55;1.65;;;22.50;71.90;;;;;;4972274;28;20041;-74
2021/08/01 08:15:50;;;;;;;1.92;1.60;;;21.40;73.80;;;;;;4972894;28;20473;-75
2021/08/01 08:18:16;;;;;;;3.70;2.28;;;21.10;75.30;;;;;;4972227;28;20047;-75
2021/08/01 08:20:43;;;;;;;3.88;1.63;;;21.10;76.20;;;;;;4968437;28;20066;-74
2021/08/01 08:23:09;;;;;;;4.20;1.90;;;21.30;75.30;;;;;;4957862;28;20393;-74
2021/08/01 08:25:35;;;;;;;2.22;1.65;;;21.10;76.40;;;;;;4965660;28;20050;-74
2021/08/01 08:28:02;;;;;;;3.08;1.60;;;21.10;76.50;;;;;;4972952;28;20047;-73
2021/08/01 08:30:28;;;;;;;3.28;1.52;;;20.90;77.00;;;;;;4970736;28;20066;-73
2021/08/01 08:32:55;;;;;;;3.45;2.08;;;20.80;77.30;;;;;;4956969;28;20449;-74
2021/08/01 08:35:21;;;;;;;3.35;1.92;;;20.10;78.00;;;;;;4968872;28;20034;-73
2021/08/01 08:37:49;;;;;;;3.65;2.10;;;20.30;77.10;;;;;;4961044;28;20030;-74
2021/08/01 08:40:16;;;;;;;2.80;1.77;;;20.60;78.00;;;;;;4971446;28;20066;-73
2021/08/01 08:42:45;;;;;;;7.35;2.15;;;21.20;75.60;;;;;;4978667;28;20035;-73
2021/08/01 08:45:15;;;;;;;4.45;2.10;;;21.50;75.30;;;;;;4972259;28;20404;-73
2021/08/01 08:47:46;;;;;;;4.40;2.40;;;21.70;74.70;;;;;;4972516;28;20380;-74
2021/08/01 08:50:15;;;;;;;3.63;1.88;;;22.20;72.20;;;;;;4971065;28;20042;-75
2021/08/01 08:52:45;;;;;;;4.07;1.70;;;23.40;68.30;;;;;;4972457;28;20100;-73
2021/08/01 08:55:13;;;;;;;3.42;1.73;;;23.60;69.40;;;;;;4976740;28;20031;-73
2021/08/01 08:57:46;;;;;;;3.63;1.75;;;23.80;68.40;;;;;;4975352;28;20469;-74
2021/08/01 09:00:13;;;;;;;3.25;1.95;;;23.00;67.60;;;;;;4972370;28;20047;-74
2021/08/01 09:02:40;;;;;;;4.68;2.85;;;21.90;70.70;;;;;;4972549;28;20389;-74
2021/08/01 09:05:08;;;;;;;4.03;2.35;;;21.30;72.20;;;;;;4970547;28;20361;-73
2021/08/01 09:07:35;;;;;;;3.45;2.05;;;20.70;75.30;;;;;;4972737;28;20362;-74
2021/08/01 09:10:02;;;;;;;4.32;2.13;;;20.80;75.10;;;;;;4971482;28;20050;-74
2021/08/01 09:12:29;;;;;;;4.00;2.22;;;21.00;74.40;;;;;;4971038;28;20042;-73
2021/08/01 09:15:10;;;;;;;3.22;2.10;;;21.00;73.90;;;;;;4986529;28;20400;-74
2021/08/01 09:17:38;;;;;;;4.47;2.00;;;20.90;74.00;;;;;;4972132;28;20050;-73
2021/08/01 09:20:26;;;;;;;6.85;2.22;;;20.50;75.30;;;;;;4973397;28;20384;-73
2021/08/01 09:23:01;;;;;;;4.82;2.60;;;20.70;74.90;;;;;;4970476;28;20031;-73
2021/08/01 09:25:32;;;;;;;5.13;2.20;;;20.90;74.80;;;;;;4972539;28;20049;-72
2021/08/01 09:28:15;;;;;;;2.65;2.00;;;21.00;73.90;;;;;;4973074;28;20479;-73
2021/08/01 09:30:47;;;;;;;3.30;1.88;;;20.90;73.60;;;;;;4971849;28;20047;-73
2021/08/01 09:33:20;;;;;;;2.67;1.95;;;20.80;72.80;;;;;;4970360;28;20039;-74
2021/08/01 09:35:46;;;;;;;3.45;1.90;;;21.10;73.90;;;;;;4967399;28;20512;-74
2021/08/01 09:38:14;;;;;;;3.17;2.00;;;21.90;71.10;;;;;;4959910;28;20026;-74
2021/08/01 09:40:41;;;;;;;2.83;2.15;;;21.80;69.30;;;;;;4971413;28;20050;-74
2021/08/01 09:43:09;;;;;;;4.13;2.70;;;21.90;70.20;;;;;;4971550;28;20034;-75
2021/08/01 09:45:35;;;;;;;3.80;2.83;;;21.90;70.50;;;;;;4953264;29;20046;-74
2021/08/01 09:48:18;;;;;;;3.28;2.03;;;22.10;69.20;;;;;;4969883;28;20043;-74
2021/08/01 09:51:00;;;;;;;2.75;2.03;;;22.30;69.50;;;;;;4955160;28;20058;-73
2021/08/01 09:53:28;;;;;;;7.22;2.15;;;22.50;67.80;;;;;;4971074;28;20376;-73
2021/08/01 09:56:14;;;;;;;3.85;2.63;;;22.30;68.00;;;;;;4971357;28;20035;-74
2021/08/01 09:58:42;;;;;;;4.03;2.30;;;22.40;69.00;;;;;;4955706;28;20070;-74
2021/08/01 10:01:09;;;;;;;2.75;1.77;;;22.30;67.50;;;;;;4976832;28;20050;-75
2021/08/01 10:03:39;;;;;;;3.53;2.17;;;21.60;70.80;;;;;;4971512;28;20472;-74
2021/08/01 10:06:15;;;;;;;;;;;21.80;67.90;;;;;;4970810;28;20527;-74
2021/08/01 10:08:49;;;;;;;5.07;1.95;;;21.90;68.40;;;;;;4972000;28;19910;-75
2021/08/01 10:11:24;;;;;;;4.10;2.08;;;22.00;68.70;;;;;;4970566;28;20414;-74
2021/08/01 10:13:53;;;;;;;4.30;1.80;;;22.20;66.80;;;;;;4971862;28;20065;-74
2021/08/01 10:16:20;;;;;;;4.03;1.70;;;22.10;68.00;;;;;;4954127;28;20046;-74
2021/08/01 10:18:48;;;;;;;3.25;2.00;;;22.30;68.90;;;;;;4966090;28;20074;-74
2021/08/01 10:21:21;;;;;;;3.80;1.90;;;22.60;66.00;;;;;;4956035;28;20031;-73
2021/08/01 10:23:53;;;;;;;2.47;1.38;;;22.50;65.20;;;;;;4973431;28;20027;-74
2021/08/01 10:26:22;;;;;;;2.17;1.30;;;22.00;67.40;;;;;;4973800;28;20058;-73
2021/08/01 10:28:52;;;;;;;3.58;1.23;;;22.00;65.60;;;;;;4975211;28;20038;-73
2021/08/01 10:31:30;;;;;;;4.55;1.63;;;21.60;66.80;;;;;;4973124;28;20046;-74
2021/08/01 10:34:09;;;;;;;3.50;1.20;;;21.60;65.80;;;;;;4971227;28;20050;-74
2021/08/01 10:36:37;;;;;;;2.00;1.08;;;21.60;66.80;;;;;;4971800;28;20062;-73
2021/08/01 10:39:07;;;;;;;1.95;1.02;;;21.60;66.30;;;;;;4976181;28;20035;-74
2021/08/01 10:41:35;;;;;;;4.43;1.53;;;21.70;67.40;;;;;;4975490;28;20050;-74
2021/08/01 10:44:08;;;;;;;2.88;1.10;;;22.00;65.30;;;;;;4975666;28;20302;-73
2021/08/01 10:46:36;;;;;;;2.65;1.10;;;22.00;65.90;;;;;;4975697;28;20042;-73
2021/08/01 10:49:03;;;;;;;5.78;1.55;;;22.30;65.00;;;;;;4974722;28;20039;-73
2021/08/01 10:51:31;;;;;;;4.88;1.30;;;22.40;64.30;;;;;;4975420;28;20034;-76
2021/08/01 10:54:19;;;;;;;2.95;1.00;;;22.30;64.70;;;;;;4977459;28;20058;-74
2021/08/01 10:56:47;;;;;;;3.47;1.50;;;22.00;64.70;;;;;;4964153;28;20043;-74
2021/08/01 10:59:44;;;;;;;2.30;1.10;;;22.20;62.90;;;;;;4974718;28;20054;-74
2021/08/01 11:02:14;;;;;;;3.00;1.42;;;22.30;63.80;;;;;;4975153;28;20043;-74
2021/08/01 11:04:43;;;;;;;2.60;1.05;;;22.10;63.60;;;;;;4975742;28;20031;-74
2021/08/01 11:07:09;;;;;;;2.65;1.55;;;21.90;64.40;;;;;;4974930;28;20034;-73
2021/08/01 11:09:36;;;;;;;3.13;1.50;;;22.10;64.20;;;;;;4975162;28;20033;-73
2021/08/01 11:12:27;;;;;;;3.83;1.33;;;22.00;64.40;;;;;;4975542;28;20058;-73
2021/08/01 11:14:54;;;;;;;3.03;1.08;;;21.90;62.00;;;;;;4976288;28;20034;-73
2021/08/01 11:17:40;;;;;;;3.08;1.30;;;22.00;62.50;;;;;;4975047;28;20031;-73
2021/08/01 11:20:31;;;;;;;4.03;1.30;;;22.50;60.20;;;;;;4973567;28;20039;-73
2021/08/01 11:23:03;;;;;;;1.88;1.30;;;22.20;61.70;;;;;;4971969;28;20042;-73
2021/08/01 11:25:34;;;;;;;1.70;1.05;;;22.30;61.10;;;;;;4974476;28;20046;-74
2021/08/01 11:30:54;;;;;;;3.25;1.15;;;23.20;60.40;;;;;;4975144;28;20054;-73
2021/08/01 11:33:39;;;;;;;1.80;1.20;;;23.20;59.40;;;;;;4972515;28;20042;-73
2021/08/01 11:38:53;;;;;;;2.63;0.98;;;24.10;57.30;;;;;;4974915;28;20041;-73
2021/08/01 11:41:29;;;;;;;2.30;0.90;;;24.70;56.70;;;;;;4974531;28;20037;-75
2021/08/01 11:43:59;;;;;;;2.20;1.02;;;25.20;55.90;;;;;;4974788;28;20039;-75
2021/08/01 11:46:26;;;;;;;2.42;1.30;;;25.30;55.30;;;;;;4956657;28;20042;-75
2021/08/01 11:49:12;;;;;;;1.90;1.20;;;24.40;55.60;;;;;;4970464;28;20463;-74
2021/08/01 11:51:43;;;;;;;4.60;1.00;;;23.90;55.70;;;;;;4988899;28;20050;-75
2021/08/01 11:54:13;;;;;;;7.75;1.30;;;23.60;56.80;;;;;;4973650;28;20058;-73
2021/08/01 11:56:43;;;;;;;2.22;1.02;;;23.30;58.20;;;;;;4957593;28;20050;-75
2021/08/01 11:59:13;;;;;;;4.95;1.48;;;23.20;58.40;;;;;;4966577;28;20058;-73
2021/08/01 12:01:41;;;;;;;1.90;1.10;;;23.40;58.90;;;;;;4974727;28;20432;-74
2021/08/01 12:04:11;;;;;;;2.13;1.10;;;23.90;57.10;;;;;;4974395;28;20035;-74
2021/08/01 12:06:42;;;;;;;2.65;1.98;;;24.00;56.20;;;;;;4974298;28;20049;-74
2021/08/01 12:09:16;;;;;;;2.72;1.20;;;23.70;58.00;;;;;;4972443;28;20062;-74
2021/08/01 12:11:44;;;;;;;2.33;1.52;;;24.30;57.10;;;;;;4973977;28;20046;-74
2021/08/01 12:14:11;;;;;;;2.15;1.35;;;23.90;56.70;;;;;;4973850;28;20043;-74
2021/08/01 12:16:37;;;;;;;2.72;1.13;;;23.90;57.30;;;;;;4974183;28;20372;-74
2021/08/01 12:19:20;;;;;;;3.45;1.20;;;24.00;56.50;;;;;;4975480;28;20445;-75
2021/08/01 12:21:48;;;;;;;2.92;1.27;;;24.50;55.70;;;;;;4962279;28;20065;-75
2021/08/01 12:24:41;;;;;;;3.22;1.15;;;24.50;56.10;;;;;;4973592;28;20054;-75
2021/08/01 12:27:18;;;;;;;2.42;0.98;;;24.90;56.30;;;;;;4974402;28;20047;-75
2021/08/01 12:29:47;;;;;;;2.88;1.30;;;25.20;55.90;;;;;;4961064;28;20038;-75
2021/08/01 12:32:32;;;;;;;1.85;1.30;;;25.40;55.70;;;;;;4972375;28;20039;-74
2021/08/01 12:35:23;;;;;;;2.15;1.40;;;25.70;54.80;;;;;;4974238;28;20046;-74
2021/08/01 12:38:00;;;;;;;4.07;1.60;;;25.80;53.90;;;;;;4968951;28;20027;-75
2021/08/01 12:40:27;;;;;;;3.80;1.55;;;25.50;53.40;;;;;;4963635;28;20058;-75
2021/08/01 12:42:58;;;;;;;4.95;1.40;;;24.90;54.70;;;;;;4968104;28;20354;-75
2021/08/01 12:45:36;;;;;;;1.75;1.00;;;24.60;54.90;;;;;;4955765;28;20039;-75
2021/08/01 12:48:13;;;;;;;2.55;1.30;;;24.10;56.00;;;;;;4965959;28;20046;-74
2021/08/01 12:50:44;;;;;;;2.90;1.63;;;24.00;55.80;;;;;;4973589;28;20042;-75
2021/08/01 12:53:14;;;;;;;2.65;1.50;;;23.90;55.00;;;;;;4972475;28;20035;-74
2021/08/01 12:55:42;;;;;;;2.70;1.33;;;23.80;54.30;;;;;;4973532;28;20041;-74
2021/08/01 12:58:09;;;;;;;2.30;1.35;;;23.90;54.80;;;;;;4973044;28;20461;-75
2021/08/01 13:00:57;;;;;;;2.15;1.20;;;23.50;55.20;;;;;;4973030;28;20480;-76
2021/08/01 13:03:32;;;;;;;2.20;1.30;;;23.40;55.10;;;;;;4962305;28;20079;-75
2021/08/01 13:05:59;;;;;;;1.90;1.40;;;23.20;55.90;;;;;;4971896;28;20042;-75
2021/08/01 13:08:45;;;;;;;2.78;1.90;;;23.10;56.60;;;;;;4972161;28;20047;-74